createdAt,value
2018-10-19T00:02:51.252Z,14.33
2018-10-19T00:07:49.717Z,15.73
2018-10-19T00:12:48.102Z,8.57
2018-10-19T00:17:46.584Z,10.85
2018-10-19T00:22:44.981Z,9.80
2018-10-19T00:27:43.480Z,13.10
2018-10-19T00:32:41.942Z,11.60
2018-10-19T00:37:40.364Z,12.33
2018-10-19T00:42:38.786Z,9.47
2018-10-19T00:47:37.253Z,6.43
2018-10-19T00:52:35.663Z,16.13
2018-10-19T00:57:34.207Z,8.47
2018-10-19T01:02:32.594Z,9.37
2018-10-19T01:07:31.070Z,7.57
2018-10-19T01:12:29.438Z,6.33
2018-10-19T01:17:27.945Z,8.87
2018-10-19T01:22:26.353Z,9.50
2018-10-19T01:27:24.851Z,7.50
2018-10-19T01:32:23.294Z,10.70
2018-10-19T01:37:21.852Z,13.13
2018-10-19T01:42:20.246Z,8.37
2018-10-19T01:47:18.743Z,12.63
2018-10-19T01:52:17.192Z,11.43
2018-10-19T01:57:15.727Z,14.73
2018-10-19T02:02:14.051Z,9.13
2018-10-19T02:07:12.641Z,8.33
2018-10-19T02:12:11.024Z,8.80
2018-10-19T02:17:09.729Z,5.33
2018-10-19T02:22:08.343Z,7.57
2018-10-19T02:27:07.571Z,8.57
2018-10-19T02:32:05.878Z,12.33
2018-10-19T02:37:04.520Z,6.33
2018-10-19T02:42:02.925Z,8.77
2018-10-19T02:47:01.337Z,5.97
2018-10-19T02:51:59.703Z,11.27
2018-10-19T02:56:58.176Z,8.80
2018-10-19T03:01:56.650Z,4.53
2018-10-19T03:06:55.133Z,6.17
2018-10-19T03:11:53.545Z,9.33
2018-10-19T03:16:52.077Z,8.07
2018-10-19T03:21:50.432Z,5.77
2018-10-19T03:26:48.808Z,7.60
2018-10-19T03:31:47.174Z,9.23
2018-10-19T03:36:45.597Z,14.20
2018-10-19T03:41:43.965Z,17.37
2018-10-19T03:46:42.416Z,5.53
2018-10-19T03:51:40.846Z,5.00
2018-10-19T03:56:39.309Z,5.67
2018-10-19T04:01:37.697Z,6.60
2018-10-19T04:06:36.189Z,11.13
2018-10-19T04:11:34.553Z,13.57
2018-10-19T04:16:32.983Z,10.00
2018-10-19T04:21:31.361Z,12.20
2018-10-19T04:26:29.799Z,6.90
2018-10-19T04:31:28.303Z,5.97
2018-10-19T04:36:26.839Z,13.40
2018-10-19T04:41:25.204Z,5.67
2018-10-19T04:46:23.690Z,5.97
2018-10-19T04:51:22.091Z,5.87
2018-10-19T04:56:20.592Z,9.93
2018-10-19T05:01:18.983Z,7.10
2018-10-19T05:06:17.519Z,5.77
2018-10-19T05:11:16.000Z,6.80
2018-10-19T05:16:14.264Z,6.57
2018-10-19T05:21:12.650Z,12.00
2018-10-19T05:26:11.144Z,10.77
2018-10-19T05:31:09.469Z,12.33
2018-10-19T05:36:07.978Z,6.27
2018-10-19T05:41:06.499Z,12.43
2018-10-19T05:46:05.127Z,8.87
2018-10-19T05:51:03.653Z,8.87
2018-10-19T05:56:02.143Z,10.33
2018-10-19T06:01:00.474Z,7.87
2018-10-19T06:05:58.950Z,9.23
2018-10-19T06:10:57.428Z,7.30
2018-10-19T06:15:55.845Z,5.57
2018-10-19T06:20:54.302Z,6.07
2018-10-19T06:25:52.785Z,9.17
2018-10-19T06:30:51.183Z,6.03
2018-10-19T06:35:49.637Z,10.37
2018-10-19T06:40:48.045Z,10.77
2018-10-19T06:45:46.459Z,4.93
2018-10-19T06:50:44.936Z,10.13
2018-10-19T06:55:43.485Z,6.17
2018-10-19T07:00:41.846Z,9.17
2018-10-19T08:30:00.075Z,14.00
2018-10-19T08:34:58.474Z,17.53
2018-10-19T08:39:56.902Z,11.10
2018-10-19T08:44:55.315Z,13.83
2018-10-19T08:49:53.785Z,11.30
2018-10-19T08:54:52.155Z,10.60
2018-10-19T08:59:50.776Z,14.73
2018-10-19T09:04:49.138Z,14.37
2018-10-19T09:09:47.532Z,14.00
2018-10-19T09:14:47.998Z,19.73
2018-10-19T09:19:46.718Z,10.97
2018-10-19T09:24:45.142Z,11.20
2018-10-19T09:29:43.594Z,13.03
2018-10-19T09:34:41.984Z,17.13
2018-10-19T09:39:40.513Z,18.23
2018-10-19T09:44:38.913Z,11.10
2018-10-19T09:49:37.398Z,11.20
2018-10-19T09:54:35.790Z,10.37
2018-10-19T09:59:34.191Z,14.23
2018-10-19T10:04:32.559Z,16.77
2018-10-19T10:09:30.961Z,16.83
2018-10-19T10:14:29.333Z,11.40
2018-10-19T10:19:27.741Z,19.07
2018-10-19T10:24:26.108Z,12.70
2018-10-19T10:29:24.478Z,17.13
2018-10-19T10:34:22.850Z,19.73
2018-10-19T10:39:21.313Z,23.80
2018-10-19T10:44:19.610Z,12.30
2018-10-19T10:49:18.207Z,14.73
2018-10-19T10:54:16.484Z,9.40
2018-10-19T10:59:14.960Z,8.77
2018-10-19T11:04:13.454Z,11.80
2018-10-19T11:09:12.473Z,17.47
2018-10-19T11:14:10.883Z,12.67
2018-10-19T11:19:09.447Z,9.73
2018-10-19T11:24:07.851Z,14.60
2018-10-19T11:29:06.285Z,11.07
2018-10-19T11:34:04.818Z,12.60
2018-10-19T11:39:04.409Z,11.83
2018-10-19T11:44:03.619Z,9.93
2018-10-19T11:49:02.091Z,15.47
2018-10-19T11:54:00.416Z,15.63
2018-10-19T11:58:58.855Z,11.87
2018-10-19T12:03:57.227Z,8.07
2018-10-19T12:08:55.651Z,12.53
2018-10-19T12:13:54.048Z,16.07
2018-10-19T12:18:52.492Z,15.10
2018-10-19T12:23:50.869Z,11.87
2018-10-19T12:28:49.235Z,16.40
2018-10-19T12:33:47.598Z,11.47
2018-10-19T12:38:46.108Z,19.23
2018-10-19T12:43:44.645Z,18.10
2018-10-19T12:48:43.030Z,12.63
2018-10-19T12:53:41.468Z,14.10
2018-10-19T12:58:40.067Z,15.77
2018-10-19T13:03:39.483Z,10.73
2018-10-19T13:08:37.868Z,13.10
2018-10-19T13:13:36.369Z,17.13
2018-10-19T13:18:34.848Z,14.10
2018-10-19T13:23:33.903Z,11.40
2018-10-19T13:28:32.371Z,11.30
2018-10-19T13:33:30.740Z,10.97
2018-10-19T13:38:29.273Z,11.37
2018-10-19T13:43:27.666Z,13.87
2018-10-19T13:48:26.162Z,17.67
2018-10-19T13:53:24.562Z,14.13
2018-10-19T13:58:23.087Z,15.30
2018-10-19T14:03:21.465Z,11.20
2018-10-19T14:08:19.961Z,11.77
2018-10-19T14:13:18.382Z,12.87
2018-10-19T14:18:16.862Z,12.90
2018-10-19T14:23:15.334Z,15.63
2018-10-19T14:28:13.598Z,12.50
2018-10-19T14:33:12.055Z,12.97
2018-10-19T14:38:10.417Z,16.17
2018-10-19T14:43:08.809Z,13.27
2018-10-19T14:48:07.230Z,13.60
2018-10-19T14:53:05.766Z,14.47
2018-10-19T14:58:04.574Z,13.07
2018-10-19T15:03:03.496Z,8.67
2018-10-19T15:08:01.941Z,12.27
2018-10-19T15:13:00.365Z,10.70
2018-10-19T15:17:58.879Z,22.07
2018-10-19T15:22:57.188Z,12.30
2018-10-19T15:27:55.616Z,17.77
2018-10-19T15:32:54.010Z,20.60
2018-10-19T15:37:52.421Z,13.53
2018-10-19T15:42:50.809Z,15.33
2018-10-19T15:47:49.212Z,17.63
2018-10-19T15:52:47.616Z,18.30
2018-10-19T15:57:46.105Z,12.63
2018-10-19T16:02:44.503Z,12.57
2018-10-19T16:07:42.905Z,14.03
2018-10-19T16:12:41.307Z,16.27
2018-10-19T16:17:39.737Z,16.63
2018-10-19T16:22:38.426Z,16.77
2018-10-19T16:27:37.960Z,15.03
2018-10-19T16:32:36.845Z,18.70
2018-10-19T16:37:35.546Z,22.70
2018-10-19T16:42:33.933Z,20.80
2018-10-19T16:47:32.865Z,16.27
2018-10-19T16:52:31.287Z,24.37
2018-10-19T16:57:29.653Z,20.37
2018-10-19T17:02:28.358Z,17.00
2018-10-19T17:07:26.850Z,14.60
2018-10-19T17:12:25.223Z,20.33
2018-10-19T17:17:23.654Z,19.77
2018-10-19T17:22:22.031Z,14.33
2018-10-19T17:27:20.443Z,15.13
2018-10-19T17:32:18.886Z,17.63
2018-10-19T17:37:17.401Z,14.17
2018-10-19T17:42:15.816Z,14.00
2018-10-19T17:47:14.295Z,21.33
2018-10-19T17:52:12.638Z,16.20
2018-10-19T17:57:11.274Z,20.30
2018-10-19T18:02:09.670Z,18.00
2018-10-19T18:07:08.267Z,24.27
2018-10-19T18:12:06.648Z,24.60
2018-10-19T18:17:05.138Z,25.23
2018-10-19T18:22:03.588Z,22.33
2018-10-19T18:27:01.954Z,28.00
2018-10-19T18:32:00.380Z,22.93
2018-10-19T18:36:58.949Z,28.57
2018-10-19T18:41:57.322Z,35.07
2018-10-19T18:46:55.758Z,30.20
2018-10-19T18:51:54.240Z,29.50
2018-10-19T18:56:52.741Z,22.90
2018-10-19T19:01:51.149Z,25.30
2018-10-19T19:06:49.592Z,23.80
2018-10-19T19:11:48.030Z,26.57
2018-10-19T19:16:46.626Z,31.80
2018-10-19T19:21:45.115Z,31.23
2018-10-19T19:26:43.612Z,26.27
2018-10-19T19:31:42.001Z,32.57
2018-10-19T19:36:40.449Z,30.43
2018-10-19T19:41:44.306Z,30.07
2018-10-19T19:46:42.853Z,31.30
2018-10-19T19:51:41.253Z,26.17
2018-10-19T19:56:39.635Z,25.77
2018-10-19T20:01:38.007Z,26.90
2018-10-19T20:06:36.712Z,32.77
2018-10-19T20:11:35.118Z,27.07
2018-10-19T20:16:33.610Z,29.17
2018-10-19T20:21:31.989Z,24.83
2018-10-19T20:26:30.427Z,20.67
2018-10-19T20:31:28.806Z,26.43
2018-10-19T20:36:27.304Z,24.67
2018-10-19T20:41:25.726Z,26.00
2018-10-19T20:46:24.101Z,20.97
2018-10-19T20:51:22.482Z,31.43
2018-10-19T20:56:21.009Z,30.27
2018-10-19T21:01:19.383Z,27.23
2018-10-19T21:06:17.870Z,19.47
2018-10-19T21:11:16.320Z,22.50
2018-10-19T21:16:14.644Z,21.73
2018-10-19T21:21:13.068Z,22.17
2018-10-19T21:26:11.593Z,20.73
2018-10-19T21:31:09.993Z,21.53
2018-10-19T21:36:08.457Z,26.53
2018-10-19T21:41:06.936Z,24.43
2018-10-19T21:46:05.362Z,19.70
2018-10-19T21:51:03.749Z,21.27
2018-10-19T21:56:02.325Z,23.30
2018-10-19T22:01:00.661Z,28.87
2018-10-19T22:05:59.313Z,20.70
2018-10-19T22:10:57.731Z,25.03
2018-10-19T22:15:56.248Z,23.57
2018-10-19T22:20:54.758Z,26.10
2018-10-19T22:25:53.295Z,8.20
2018-10-19T22:30:51.905Z,7.13
2018-10-19T22:35:50.412Z,9.60
2018-10-19T22:40:48.827Z,7.23
2018-10-19T22:45:47.358Z,8.17
2018-10-19T22:50:45.768Z,11.77
2018-10-19T22:55:44.420Z,9.73
2018-10-19T23:00:42.857Z,6.57
2018-10-19T23:05:41.381Z,7.07
2018-10-19T23:10:40.131Z,6.70
2018-10-19T23:15:38.646Z,6.33
